createdAt,value
2018-09-08T00:00:05.567Z,32.3
2018-09-08T00:01:07.146Z,32.3
2018-09-08T00:02:08.702Z,31.8
2018-09-08T00:03:10.258Z,32.3
2018-09-08T00:04:11.820Z,31.8
2018-09-08T00:05:13.420Z,32.3
2018-09-08T00:06:15.019Z,32.3
2018-09-08T00:07:16.582Z,32.3
2018-09-08T00:08:18.186Z,32.3
2018-09-08T00:09:19.758Z,31.8
2018-09-08T00:10:21.536Z,31.8
2018-09-08T00:11:23.109Z,31.8
2018-09-08T00:12:24.674Z,32.3
2018-09-08T00:13:26.061Z,31.8
2018-09-08T00:14:27.642Z,31.8
2018-09-08T00:15:29.216Z,31.8
2018-09-08T00:16:30.790Z,32.3
2018-09-08T00:17:32.360Z,32.3
2018-09-08T00:18:33.894Z,32.3
2018-09-08T00:19:35.453Z,31.8
2018-09-08T00:20:37.025Z,32.3
2018-09-08T00:21:38.577Z,32.3
2018-09-08T00:22:39.965Z,31.8
2018-09-08T00:23:41.528Z,32.3
2018-09-08T00:24:43.093Z,31.8
2018-09-08T00:25:44.664Z,31.3
2018-09-08T00:26:46.227Z,32.3
2018-09-08T00:27:47.811Z,32.3
2018-09-08T00:28:49.379Z,31.8
2018-09-08T00:29:50.971Z,31.8
2018-09-08T00:30:52.525Z,32.3
2018-09-08T00:31:54.088Z,32.3
2018-09-08T00:32:55.641Z,32.3
2018-09-08T00:33:57.034Z,31.3
2018-09-08T00:34:58.603Z,32.3
2018-09-08T00:36:00.167Z,32.3
2018-09-08T00:37:01.756Z,32.3
2018-09-08T00:38:03.327Z,32.3
2018-09-08T00:39:04.884Z,31.8
2018-09-08T00:40:06.474Z,31.8
2018-09-08T00:41:08.058Z,31.8
2018-09-08T00:42:09.634Z,32.3
2018-09-08T00:43:11.215Z,31.3
2018-09-08T00:44:12.785Z,31.3
2018-09-08T00:45:14.390Z,32.3
2018-09-08T00:46:15.972Z,31.8
2018-09-08T00:47:17.565Z,32.3
2018-09-08T00:48:19.132Z,32.3
2018-09-08T00:49:20.728Z,31.3
2018-09-08T00:50:22.281Z,31.8
2018-09-08T00:51:23.690Z,32.3
2018-09-08T00:52:25.273Z,32.7
2018-09-08T00:53:26.842Z,32.3
2018-09-08T00:54:28.263Z,32.3
2018-09-08T00:55:29.842Z,32.3
2018-09-08T00:56:31.405Z,32.3
2018-09-08T00:57:32.957Z,32.3
2018-09-08T00:58:34.513Z,32.3
2018-09-08T00:59:36.094Z,32.3
2018-09-08T01:00:37.662Z,31.8
2018-09-08T01:01:39.231Z,31.8
2018-09-08T01:02:40.634Z,31.8
2018-09-08T01:03:42.460Z,32.3
2018-09-08T01:04:44.166Z,31.3
2018-09-08T01:05:45.566Z,31.8
2018-09-08T01:06:47.195Z,32.3
2018-09-08T01:07:48.763Z,31.8
2018-09-08T01:08:50.346Z,28.8
2018-09-08T01:09:51.922Z,26.9
2018-09-08T01:10:53.344Z,26.4
2018-09-08T01:11:54.920Z,26.9
2018-09-08T01:12:56.496Z,27.9
2018-09-08T01:13:58.055Z,28.3
2018-09-08T01:14:59.631Z,29.8
2018-09-08T01:16:01.200Z,31.3
2018-09-08T01:17:02.761Z,32.7
2018-09-08T01:18:04.312Z,34.7
2018-09-08T01:19:05.889Z,34.2
2018-09-08T01:20:07.453Z,36.2
2018-09-08T01:21:08.859Z,36.2
2018-09-08T01:22:10.434Z,37.1
2018-09-08T01:23:11.834Z,37.6
2018-09-08T01:24:13.235Z,37.1
2018-09-08T01:25:14.804Z,37.6
2018-09-08T01:26:16.364Z,39.1
2018-09-08T01:27:17.940Z,39.1
2018-09-08T01:28:19.498Z,38.6
2018-09-08T01:29:21.084Z,39.6
2018-09-08T01:30:22.674Z,39.1
2018-09-08T01:31:24.222Z,40.1
2018-09-08T01:32:25.853Z,39.6
2018-09-08T01:33:27.433Z,39.6
2018-09-08T01:34:29.037Z,39.6
2018-09-08T01:35:30.606Z,40.6
2018-09-08T01:36:32.179Z,40.1
2018-09-08T01:37:33.782Z,39.6
2018-09-08T01:38:35.356Z,39.6
2018-09-08T01:39:36.918Z,40.6
2018-09-08T01:40:38.483Z,40.1
2018-09-08T01:41:40.042Z,40.6
2018-09-08T01:42:41.614Z,40.1
2018-09-08T01:43:43.185Z,40.1
2018-09-08T01:44:44.797Z,41.1
2018-09-08T01:45:46.374Z,40.6
2018-09-08T01:46:47.998Z,41.1
2018-09-08T01:47:49.568Z,40.1
2018-09-08T01:48:51.119Z,40.6
2018-09-08T01:49:52.683Z,41.1
2018-09-08T01:50:54.288Z,41.1
2018-09-08T01:51:55.693Z,40.6
2018-09-08T01:52:57.260Z,40.6
2018-09-08T01:53:58.816Z,40.6
2018-09-08T01:55:00.379Z,41.5
2018-09-08T01:56:01.934Z,40.1
2018-09-08T01:57:03.517Z,40.6
2018-09-08T01:58:05.094Z,40.6
2018-09-08T01:59:06.649Z,40.6
2018-09-08T02:00:08.226Z,40.6
2018-09-08T02:01:09.627Z,40.1
2018-09-08T02:02:11.184Z,41.1
2018-09-08T02:03:12.735Z,41.1
2018-09-08T02:04:14.321Z,40.6
2018-09-08T02:05:15.720Z,40.6
2018-09-08T02:06:17.279Z,41.1
2018-09-08T02:07:18.682Z,41.1
2018-09-08T02:08:20.234Z,40.6
2018-09-08T02:09:21.851Z,40.1
2018-09-08T02:10:38.095Z,40.6
2018-09-08T02:11:39.665Z,40.1
2018-09-08T02:12:41.227Z,40.6
2018-09-08T02:13:42.787Z,40.6
2018-09-08T02:14:44.566Z,40.6
2018-09-08T02:15:46.155Z,40.6
2018-09-08T02:16:47.741Z,40.6
2018-09-08T02:17:49.326Z,40.6
2018-09-08T02:18:50.911Z,41.1
2018-09-08T02:19:52.503Z,40.6
2018-09-08T02:20:54.061Z,40.6
2018-09-08T02:21:55.614Z,39.6
2018-09-08T02:22:57.260Z,40.1
2018-09-08T02:23:58.888Z,40.1
2018-09-08T02:25:00.280Z,39.6
2018-09-08T02:26:01.856Z,40.1
2018-09-08T02:27:03.413Z,40.6
2018-09-08T02:28:04.977Z,39.6
2018-09-08T02:29:06.544Z,40.1
2018-09-08T02:30:08.158Z,40.1
2018-09-08T02:31:09.742Z,39.6
2018-09-08T02:32:11.309Z,40.1
2018-09-08T02:33:12.890Z,40.1
2018-09-08T02:34:14.437Z,39.1
2018-09-08T02:35:15.994Z,39.6
2018-09-08T02:36:17.602Z,39.6
2018-09-08T02:37:19.168Z,39.1
2018-09-08T02:38:20.725Z,39.1
2018-09-08T02:39:22.161Z,39.6
2018-09-08T02:40:23.733Z,39.6
2018-09-08T02:41:25.335Z,39.6
2018-09-08T02:42:26.902Z,39.1
2018-09-08T02:43:28.467Z,39.6
2018-09-08T02:44:30.024Z,40.1
2018-09-08T02:45:31.590Z,39.1
2018-09-08T02:46:33.137Z,39.1
2018-09-08T02:47:34.535Z,40.1
2018-09-08T02:48:36.122Z,39.6
2018-09-08T02:49:37.546Z,39.1
2018-09-08T02:50:39.123Z,38.6
2018-09-08T02:51:40.710Z,39.6
2018-09-08T02:52:42.094Z,40.1
2018-09-08T02:53:43.666Z,39.1
2018-09-08T02:54:45.250Z,39.1
2018-09-08T02:55:46.805Z,38.6
2018-09-08T02:56:48.375Z,39.1
2018-09-08T02:57:49.935Z,39.1
2018-09-08T02:58:51.527Z,39.1
2018-09-08T02:59:52.940Z,39.1
2018-09-08T03:00:54.557Z,39.1
2018-09-08T03:01:56.133Z,38.6
2018-09-08T03:02:57.709Z,38.6
2018-09-08T03:03:59.278Z,38.6
2018-09-08T03:05:00.856Z,39.1
2018-09-08T03:06:02.445Z,39.1
2018-09-08T03:07:04.043Z,38.6
2018-09-08T03:08:05.611Z,39.1
2018-09-08T03:09:07.181Z,39.6
2018-09-08T03:10:08.754Z,39.1
2018-09-08T03:11:10.326Z,39.1
2018-09-08T03:12:11.923Z,39.1
2018-09-08T03:13:13.520Z,38.1
2018-09-08T03:14:15.085Z,38.6
2018-09-08T03:15:16.504Z,38.6
2018-09-08T03:16:18.214Z,38.6
2018-09-08T03:17:19.714Z,39.1
2018-09-08T03:18:21.355Z,38.6
2018-09-08T03:19:22.775Z,38.1
2018-09-08T03:20:24.344Z,39.1
2018-09-08T03:21:25.907Z,39.1
2018-09-08T03:22:27.495Z,39.1
2018-09-08T03:23:28.895Z,38.6
2018-09-08T03:24:30.291Z,39.1
2018-09-08T03:25:31.849Z,39.1
2018-09-08T03:26:33.273Z,38.6
2018-09-08T03:27:34.845Z,38.6
2018-09-08T03:28:36.395Z,39.1
2018-09-08T03:29:37.986Z,39.1
2018-09-08T03:30:39.614Z,38.6
2018-09-08T03:31:41.266Z,39.6
2018-09-08T03:32:42.845Z,39.1
2018-09-08T03:33:44.443Z,39.1
2018-09-08T03:34:46.008Z,39.6
2018-09-08T03:35:47.569Z,39.6
2018-09-08T03:36:49.116Z,39.6
2018-09-08T03:37:50.686Z,39.6
2018-09-08T03:38:52.088Z,39.6
2018-09-08T03:39:53.671Z,39.6
2018-09-08T03:40:55.235Z,40.6
2018-09-08T03:41:56.793Z,40.1
2018-09-08T03:42:58.354Z,40.1
2018-09-08T03:43:59.936Z,40.6
2018-09-08T03:45:01.504Z,40.6
2018-09-08T03:46:03.070Z,41.1
2018-09-08T03:47:04.633Z,39.6
2018-09-08T03:48:06.195Z,41.1
2018-09-08T03:49:07.611Z,40.6
2018-09-08T03:50:09.184Z,41.1
2018-09-08T03:51:10.748Z,41.5
2018-09-08T03:52:12.310Z,41.1
2018-09-08T03:53:13.902Z,40.6
2018-09-08T03:54:15.464Z,40.6
2018-09-08T03:55:17.029Z,41.5
2018-09-08T03:56:18.613Z,42
2018-09-08T03:57:20.183Z,40.6
2018-09-08T03:58:21.576Z,40.6
2018-09-08T03:59:23.154Z,40.6
2018-09-08T04:00:24.722Z,41.1
2018-09-08T04:01:26.275Z,40.6
2018-09-08T04:02:27.866Z,40.6
2018-09-08T04:03:29.434Z,40.6
2018-09-08T04:04:31.005Z,40.6
2018-09-08T04:05:32.831Z,41.1
2018-09-08T04:06:34.596Z,40.6
2018-09-08T04:07:36.188Z,40.1
2018-09-08T04:08:37.734Z,40.1
2018-09-08T04:09:39.364Z,41.5
2018-09-08T04:10:40.917Z,40.6
2018-09-08T04:11:42.482Z,40.6
2018-09-08T04:12:44.053Z,40.1
2018-09-08T04:13:45.626Z,40.1
2018-09-08T04:14:47.194Z,40.6
2018-09-08T04:15:48.774Z,40.6
2018-09-08T04:16:50.179Z,41.1
2018-09-08T04:17:51.765Z,40.1
2018-09-08T04:18:53.340Z,40.6
2018-09-08T04:19:54.931Z,40.6
2018-09-08T04:20:56.490Z,40.1
2018-09-08T04:21:58.062Z,40.1
2018-09-08T04:22:59.642Z,39.6
2018-09-08T04:24:01.546Z,40.1
2018-09-08T04:25:03.253Z,39.6
2018-09-08T04:26:04.654Z,39.6
2018-09-08T04:27:06.214Z,40.1
2018-09-08T04:28:07.765Z,40.1
2018-09-08T04:29:09.320Z,39.6
2018-09-08T04:30:10.904Z,40.1
2018-09-08T04:31:12.298Z,39.6
2018-09-08T04:32:13.703Z,39.6
2018-09-08T04:33:15.269Z,39.6
2018-09-08T04:34:16.832Z,39.6
2018-09-08T04:35:18.245Z,39.6
2018-09-08T04:36:19.843Z,40.1
2018-09-08T04:37:21.404Z,39.6
2018-09-08T04:38:22.989Z,40.1
2018-09-08T04:39:24.535Z,39.6
2018-09-08T04:40:26.115Z,40.1
2018-09-08T04:41:27.686Z,39.1
2018-09-08T04:42:29.253Z,39.1
2018-09-08T04:43:30.823Z,39.6
2018-09-08T04:44:32.246Z,39.6
2018-09-08T04:45:33.673Z,40.1
2018-09-08T04:46:35.236Z,38.6
2018-09-08T04:47:36.836Z,39.1
2018-09-08T04:48:38.427Z,38.6
2018-09-08T04:49:39.658Z,39.6
2018-09-08T04:50:41.224Z,38.6
2018-09-08T04:51:42.795Z,39.1
2018-09-08T04:52:44.368Z,39.1
2018-09-08T04:53:45.783Z,39.1
2018-09-08T04:54:47.334Z,39.6
2018-09-08T04:55:48.919Z,39.6
2018-09-08T04:56:50.505Z,38.6
2018-09-08T04:57:51.895Z,39.6
2018-09-08T04:58:53.465Z,39.1
2018-09-08T04:59:54.866Z,39.6
2018-09-08T05:00:56.477Z,39.1
2018-09-08T05:01:58.076Z,38.6
2018-09-08T05:02:59.487Z,38.6
2018-09-08T05:04:00.905Z,38.6
2018-09-08T05:05:02.485Z,38.6
2018-09-08T05:06:04.054Z,39.1
2018-09-08T05:07:05.457Z,39.6
2018-09-08T05:08:07.035Z,39.1
2018-09-08T05:09:09.139Z,38.6
2018-09-08T05:10:11.059Z,38.6
2018-09-08T05:11:12.472Z,38.6
2018-09-08T05:12:14.060Z,39.1
2018-09-08T05:13:15.610Z,38.6
2018-09-08T05:14:17.005Z,39.1
2018-09-08T05:15:18.424Z,39.1
2018-09-08T05:16:20.025Z,38.6
2018-09-08T05:17:21.594Z,38.1
2018-09-08T05:18:23.186Z,38.6
2018-09-08T05:19:24.746Z,39.1
2018-09-08T05:20:26.355Z,38.6
2018-09-08T05:21:27.939Z,39.1
2018-09-08T05:22:29.505Z,38.6
2018-09-08T05:23:31.077Z,39.1
2018-09-08T05:24:32.637Z,38.6
2018-09-08T05:25:34.209Z,38.1
2018-09-08T05:26:35.814Z,39.1
2018-09-08T05:27:37.398Z,38.6
2018-09-08T05:28:39.255Z,38.1
2018-09-08T05:29:40.989Z,38.6
2018-09-08T05:30:42.561Z,38.6
2018-09-08T05:31:44.117Z,39.1
2018-09-08T05:32:45.702Z,39.6
2018-09-08T05:33:47.255Z,39.6
2018-09-08T05:34:48.830Z,39.1
2018-09-08T05:35:50.470Z,39.1
2018-09-08T05:36:52.045Z,39.6
2018-09-08T05:37:53.607Z,40.6
2018-09-08T05:38:55.175Z,39.6
2018-09-08T05:39:56.724Z,40.1
2018-09-08T05:40:58.318Z,40.6
2018-09-08T05:41:59.885Z,40.1
2018-09-08T05:43:01.766Z,40.6
2018-09-08T05:44:03.546Z,40.1
2018-09-08T05:45:05.120Z,41.5
2018-09-08T05:46:06.719Z,40.6
2018-09-08T05:47:08.305Z,40.1
2018-09-08T05:48:09.885Z,40.6
2018-09-08T05:49:11.136Z,40.1
2018-09-08T05:50:12.696Z,40.6
2018-09-08T05:51:14.245Z,40.1
2018-09-08T05:52:15.806Z,40.6
2018-09-08T05:53:17.376Z,40.6
2018-09-08T05:54:18.946Z,40.6
2018-09-08T05:55:20.355Z,41.1
2018-09-08T05:56:21.907Z,40.6
2018-09-08T05:57:23.499Z,41.1
2018-09-08T05:58:25.410Z,40.6
2018-09-08T05:59:27.083Z,41.1
2018-09-08T06:00:29.013Z,41.1
2018-09-08T06:01:30.678Z,40.6
2018-09-08T06:02:32.295Z,40.1
2018-09-08T06:03:33.888Z,40.6
2018-09-08T06:04:35.488Z,41.1
2018-09-08T06:05:36.902Z,40.6
2018-09-08T06:06:38.490Z,40.6
2018-09-08T06:07:40.048Z,40.6
2018-09-08T06:08:41.608Z,40.6
2018-09-08T06:09:43.191Z,40.6
2018-09-08T06:10:44.777Z,40.1
2018-09-08T06:11:46.352Z,40.6
2018-09-08T06:12:47.778Z,40.6
2018-09-08T06:13:49.190Z,40.1
2018-09-08T06:14:50.610Z,39.6
2018-09-08T06:15:52.179Z,40.1
2018-09-08T06:16:53.745Z,40.6
2018-09-08T06:17:55.334Z,40.6
2018-09-08T06:18:56.923Z,40.1
2018-09-08T06:19:58.515Z,40.1
2018-09-08T06:21:00.092Z,40.1
2018-09-08T06:22:01.677Z,40.1
2018-09-08T06:23:03.245Z,39.1
2018-09-08T06:24:04.833Z,40.1
2018-09-08T06:25:06.437Z,40.1
2018-09-08T06:26:08.374Z,40.1
2018-09-08T06:27:10.170Z,39.6
2018-09-08T06:28:11.753Z,40.1
2018-09-08T06:29:13.325Z,40.1
2018-09-08T06:30:15.006Z,39.6
2018-09-08T06:31:16.614Z,39.6
2018-09-08T06:32:18.218Z,39.1
2018-09-08T06:33:20.027Z,39.6
2018-09-08T06:34:21.686Z,39.1
2018-09-08T06:35:23.995Z,39.1
2018-09-08T06:36:25.566Z,38.6
2018-09-08T06:37:27.151Z,39.6
2018-09-08T06:38:28.723Z,40.1
2018-09-08T06:39:30.148Z,39.6
2018-09-08T06:40:31.739Z,39.6
2018-09-08T06:41:33.150Z,39.6
2018-09-08T06:42:34.723Z,39.1
2018-09-08T06:43:36.300Z,39.1
2018-09-08T06:44:38.008Z,40.1
2018-09-08T06:45:39.704Z,39.6
2018-09-08T06:46:41.265Z,39.1
2018-09-08T06:47:42.836Z,39.1
2018-09-08T06:48:44.417Z,39.1
2018-09-08T06:49:45.997Z,38.6
2018-09-08T06:50:47.571Z,39.6
2018-09-08T06:51:49.139Z,38.6
2018-09-08T06:52:50.760Z,38.6
2018-09-08T06:53:52.242Z,38.6
2018-09-08T06:54:53.820Z,39.1
2018-09-08T06:55:55.430Z,39.1
2018-09-08T06:56:57.008Z,38.6
2018-09-08T06:57:58.871Z,38.6
2018-09-08T06:59:00.943Z,39.1
2018-09-08T07:00:02.214Z,39.1
2018-09-08T07:01:03.802Z,39.6
2018-09-08T07:02:05.395Z,39.1
2018-09-08T07:03:06.972Z,39.1
2018-09-08T07:04:08.547Z,39.1
2018-09-08T07:05:10.145Z,39.1
2018-09-08T07:06:11.848Z,38.1
2018-09-08T07:07:13.519Z,38.6
2018-09-08T07:08:15.075Z,39.1
2018-09-08T07:09:16.669Z,38.6
2018-09-08T07:10:18.258Z,39.1
2018-09-08T07:11:19.863Z,39.1
2018-09-08T07:12:21.427Z,39.1
2018-09-08T07:13:23.007Z,38.1
2018-09-08T07:14:24.632Z,38.6
2018-09-08T07:15:26.021Z,39.1
2018-09-08T07:16:27.599Z,38.6
2018-09-08T07:17:29.184Z,39.6
2018-09-08T07:18:30.771Z,38.6
2018-09-08T07:19:32.370Z,40.1
2018-09-08T07:20:33.957Z,39.6
2018-09-08T07:21:35.564Z,39.6
2018-09-08T07:22:36.997Z,39.1
2018-09-08T07:23:38.620Z,39.6
2018-09-08T07:24:40.207Z,40.1
2018-09-08T07:25:41.633Z,39.6
2018-09-08T07:26:43.218Z,39.6
2018-09-08T07:27:44.789Z,40.1
2018-09-08T07:28:46.362Z,40.6
2018-09-08T07:29:47.926Z,40.6
2018-09-08T07:30:49.515Z,40.1
2018-09-08T07:31:51.098Z,40.1
2018-09-08T07:32:52.694Z,41.1
2018-09-08T07:33:54.092Z,40.6
2018-09-08T07:34:55.528Z,40.1
2018-09-08T07:35:57.121Z,40.1
2018-09-08T07:36:58.709Z,40.1
2018-09-08T07:38:00.240Z,40.6
2018-09-08T07:39:01.922Z,40.1
2018-09-08T07:40:03.550Z,41.1
2018-09-08T07:41:04.983Z,40.6
2018-09-08T07:42:06.574Z,40.1
2018-09-08T07:43:08.200Z,39.6
2018-09-08T07:44:09.633Z,40.6
2018-09-08T07:45:11.067Z,41.1
2018-09-08T07:46:12.664Z,39.6
2018-09-08T07:47:14.256Z,41.1
2018-09-08T07:48:15.834Z,41.5
2018-09-08T07:49:17.407Z,41.5
2018-09-08T07:50:18.989Z,41.1
2018-09-08T07:51:20.405Z,41.1
2018-09-08T07:52:22.014Z,40.1
2018-09-08T07:53:24.193Z,40.6
2018-09-08T07:54:26.067Z,40.6
2018-09-08T07:55:27.895Z,41.1
2018-09-08T07:56:29.577Z,40.6
2018-09-08T07:57:31.040Z,40.6
2018-09-08T07:58:32.609Z,39.6
2018-09-08T07:59:34.267Z,40.6
2018-09-08T08:00:35.877Z,40.1
2018-09-08T08:01:37.463Z,40.1
2018-09-08T08:02:39.048Z,40.1
2018-09-08T08:03:40.647Z,40.6
2018-09-08T08:04:42.226Z,40.6
2018-09-08T08:05:43.830Z,40.1
2018-09-08T08:06:45.635Z,41.1
2018-09-08T08:07:47.406Z,40.6
2018-09-08T08:08:49.016Z,40.6
2018-09-08T08:09:50.629Z,40.6
2018-09-08T08:10:52.066Z,40.1
2018-09-08T08:11:53.678Z,39.6
2018-09-08T08:12:55.258Z,40.1
2018-09-08T08:13:56.877Z,40.6
2018-09-08T08:14:58.488Z,39.6
2018-09-08T08:15:59.888Z,40.1
2018-09-08T08:17:01.471Z,39.6
2018-09-08T08:18:03.123Z,39.1
2018-09-08T08:19:04.551Z,39.6
2018-09-08T08:20:06.144Z,39.6
2018-09-08T08:21:07.741Z,40.1
2018-09-08T08:22:09.364Z,39.6
2018-09-08T08:23:11.118Z,40.1
2018-09-08T08:24:12.880Z,39.6
2018-09-08T08:25:14.294Z,39.1
2018-09-08T08:26:15.894Z,39.6
2018-09-08T08:27:17.473Z,40.1
2018-09-08T08:28:18.903Z,39.6
2018-09-08T08:29:20.505Z,39.6
2018-09-08T08:30:22.083Z,39.6
2018-09-08T08:31:23.685Z,40.1
2018-09-08T08:32:25.285Z,39.6
2018-09-08T08:33:26.749Z,39.6
2018-09-08T08:34:28.335Z,40.1
2018-09-08T08:35:29.934Z,39.1
2018-09-08T08:36:31.528Z,40.1
2018-09-08T08:37:33.101Z,38.6
2018-09-08T08:38:34.874Z,39.6
2018-09-08T08:39:36.465Z,39.1
2018-09-08T08:40:38.036Z,39.6
2018-09-08T08:41:39.625Z,39.6
2018-09-08T08:42:41.201Z,39.1
2018-09-08T08:43:42.785Z,39.6
2018-09-08T08:44:44.382Z,38.6
2018-09-08T08:45:45.947Z,38.6
2018-09-08T08:46:47.576Z,39.1
2018-09-08T08:47:49.176Z,39.6
2018-09-08T08:48:50.744Z,40.1
2018-09-08T08:49:52.402Z,39.1
2018-09-08T08:50:54.292Z,39.1
2018-09-08T08:51:55.996Z,39.1
2018-09-08T08:52:57.586Z,39.1
2018-09-08T08:53:59.186Z,39.1
2018-09-08T08:55:00.789Z,39.1
2018-09-08T08:56:02.365Z,38.6
2018-09-08T08:57:03.956Z,39.6
2018-09-08T08:58:05.551Z,39.1
2018-09-08T08:59:07.156Z,39.1
2018-09-08T09:00:08.818Z,39.1
2018-09-08T09:01:10.259Z,39.1
2018-09-08T09:02:11.825Z,39.6
2018-09-08T09:03:13.398Z,38.6
2018-09-08T09:04:15.058Z,38.6
2018-09-08T09:05:16.563Z,39.1
2018-09-08T09:06:18.422Z,39.1
2018-09-08T09:07:19.872Z,39.1
2018-09-08T09:08:23.383Z,38.6
2018-09-08T09:09:26.169Z,38.6
2018-09-08T09:10:27.576Z,39.1
2018-09-08T09:11:29.195Z,39.1
2018-09-08T09:12:30.810Z,39.1
2018-09-08T09:13:33.030Z,39.1
2018-09-08T09:14:37.362Z,39.6
2018-09-08T09:15:39.027Z,39.1
2018-09-08T09:16:40.632Z,40.1
2018-09-08T09:17:42.229Z,40.1
2018-09-08T09:18:46.117Z,39.6
2018-09-08T09:19:49.080Z,39.6
2018-09-08T09:20:50.657Z,40.6
2018-09-08T09:21:52.260Z,40.6
2018-09-08T09:22:53.844Z,41.1
2018-09-08T09:23:55.574Z,40.1
2018-09-08T09:24:57.943Z,40.6
2018-09-08T09:25:59.813Z,40.6
2018-09-08T09:27:01.406Z,41.1
2018-09-08T09:28:02.855Z,40.6
2018-09-08T09:29:04.476Z,40.1
2018-09-08T09:30:05.889Z,40.6
2018-09-08T09:31:07.496Z,40.6
2018-09-08T09:32:09.078Z,41.1
2018-09-08T09:33:10.666Z,41.1
2018-09-08T09:34:12.225Z,40.6
2018-09-08T09:35:13.805Z,41.1
2018-09-08T09:36:15.377Z,41.5
2018-09-08T09:37:17.236Z,41.5
2018-09-08T09:38:19.124Z,41.1
2018-09-08T09:39:20.701Z,41.1
2018-09-08T09:40:22.295Z,40.6
2018-09-08T09:41:23.888Z,40.6
2018-09-08T09:42:25.489Z,41.1
2018-09-08T09:43:27.063Z,41.5
2018-09-08T09:44:28.667Z,40.6
2018-09-08T09:45:29.916Z,40.6
2018-09-08T09:46:31.495Z,40.6
2018-09-08T09:47:33.113Z,40.1
2018-09-08T09:48:34.710Z,41.1
2018-09-08T09:49:36.280Z,40.6
2018-09-08T09:50:37.863Z,40.6
2018-09-08T09:51:39.278Z,41.5
2018-09-08T09:52:40.889Z,41.1
2018-09-08T09:53:42.296Z,40.6
2018-09-08T09:54:43.885Z,41.1
2018-09-08T09:55:45.327Z,40.6
2018-09-08T09:56:46.921Z,40.1
2018-09-08T09:57:48.513Z,41.1
2018-09-08T09:58:50.088Z,41.1
2018-09-08T09:59:51.508Z,40.6
2018-09-08T10:00:53.234Z,40.6
2018-09-08T10:01:54.918Z,39.6
2018-09-08T10:02:56.515Z,39.6
2018-09-08T10:03:58.138Z,39.6
2018-09-08T10:04:59.707Z,40.1
2018-09-08T10:06:01.337Z,40.6
2018-09-08T10:07:02.934Z,40.1
2018-09-08T10:08:04.519Z,39.6
2018-09-08T10:09:06.141Z,40.1
2018-09-08T10:10:07.767Z,39.6
2018-09-08T10:11:09.357Z,40.6
2018-09-08T10:12:11.304Z,40.6
2018-09-08T10:13:13.276Z,40.1
2018-09-08T10:14:14.859Z,39.6
2018-09-08T10:15:16.426Z,40.1
2018-09-08T10:16:18.094Z,39.6
2018-09-08T10:17:19.504Z,39.6
2018-09-08T10:18:21.076Z,39.1
2018-09-08T10:19:22.682Z,39.6
2018-09-08T10:20:24.126Z,40.1
2018-09-08T10:21:25.740Z,39.6
2018-09-08T10:22:27.325Z,39.6
2018-09-08T10:23:29.411Z,39.6
2018-09-08T10:24:31.289Z,40.1
2018-09-08T10:25:32.868Z,39.1
2018-09-08T10:26:34.453Z,39.6
2018-09-08T10:27:36.062Z,39.1
2018-09-08T10:28:37.656Z,39.6
2018-09-08T10:29:39.276Z,38.6
2018-09-08T10:30:41.932Z,39.1
2018-09-08T10:31:43.527Z,40.1
2018-09-08T10:32:45.188Z,39.6
2018-09-08T10:33:46.614Z,39.1
2018-09-08T10:34:48.543Z,38.6
2018-09-08T10:35:50.141Z,39.1
2018-09-08T10:36:51.959Z,39.1
2018-09-08T10:37:53.216Z,39.1
2018-09-08T10:38:54.794Z,39.1
2018-09-08T10:39:56.417Z,39.1
2018-09-08T10:40:58.000Z,39.6
2018-09-08T10:41:59.579Z,38.6
2018-09-08T10:43:01.184Z,39.1
2018-09-08T10:44:02.796Z,39.1
2018-09-08T10:45:04.413Z,38.6
2018-09-08T10:46:06.005Z,38.6
2018-09-08T10:47:07.596Z,39.6
2018-09-08T10:48:09.166Z,38.6
2018-09-08T10:49:10.763Z,39.1
2018-09-08T10:50:12.351Z,38.1
2018-09-08T10:51:13.915Z,39.1
2018-09-08T10:52:15.490Z,38.6
2018-09-08T10:53:17.071Z,40.1
2018-09-08T10:54:18.495Z,39.1
2018-09-08T10:55:20.083Z,39.1
2018-09-08T10:56:21.746Z,39.1
2018-09-08T10:57:23.334Z,39.1
2018-09-08T10:58:24.926Z,39.6
2018-09-08T10:59:26.550Z,39.1
2018-09-08T11:00:28.145Z,40.1
2018-09-08T11:01:30.429Z,40.1
2018-09-08T11:02:33.601Z,40.1
2018-09-08T11:03:35.943Z,40.1
2018-09-08T11:04:37.539Z,40.6
2018-09-08T11:05:39.117Z,40.6
2018-09-08T11:06:40.541Z,39.6
2018-09-08T11:07:42.136Z,40.6
2018-09-08T11:08:43.543Z,40.1
2018-09-08T11:09:44.950Z,41.1
2018-09-08T11:10:46.548Z,40.6
2018-09-08T11:11:48.139Z,40.1
2018-09-08T11:12:49.727Z,40.6
2018-09-08T11:13:51.147Z,41.5
2018-09-08T11:14:52.718Z,41.1
2018-09-08T11:15:54.796Z,41.1
2018-09-08T11:16:56.467Z,41.1
2018-09-08T11:17:58.078Z,41.1
2018-09-08T11:18:59.661Z,41.1
2018-09-08T11:20:01.258Z,41.5
2018-09-08T11:21:02.829Z,40.6
2018-09-08T11:22:04.411Z,40.6
2018-09-08T11:23:06.187Z,40.6
2018-09-08T11:24:07.778Z,40.6
2018-09-08T11:25:09.358Z,40.6
2018-09-08T11:26:10.944Z,41.1
2018-09-08T11:27:12.523Z,41.5
2018-09-08T11:28:13.942Z,41.1
2018-09-08T11:29:15.529Z,41.1
2018-09-08T11:30:17.103Z,41.1
2018-09-08T11:31:18.705Z,40.6
2018-09-08T11:32:20.158Z,40.6
2018-09-08T11:33:21.729Z,40.6
2018-09-08T11:34:23.317Z,41.1
2018-09-08T11:35:25.102Z,41.1
2018-09-08T11:36:26.508Z,41.1
2018-09-08T11:37:28.082Z,40.6
2018-09-08T11:38:30.178Z,40.6
2018-09-08T11:39:32.192Z,41.1
2018-09-08T11:40:33.771Z,40.6
2018-09-08T11:41:35.340Z,40.6
2018-09-08T11:42:36.930Z,40.6
2018-09-08T11:43:38.350Z,41.1
2018-09-08T11:44:40.104Z,39.6
2018-09-08T11:45:41.738Z,39.1
2018-09-08T11:46:43.330Z,40.6
2018-09-08T11:47:44.951Z,40.1
2018-09-08T11:48:46.547Z,40.1
2018-09-08T11:49:48.231Z,39.6
2018-09-08T11:50:49.927Z,40.6
2018-09-08T11:51:51.632Z,38.6
2018-09-08T11:52:53.569Z,40.6
2018-09-08T11:53:55.427Z,40.1
2018-09-08T11:54:57.049Z,40.1
2018-09-08T11:55:58.648Z,40.1
2018-09-08T11:57:00.391Z,39.1
2018-09-08T11:58:01.995Z,40.1
2018-09-08T11:59:03.595Z,39.6
2018-09-08T12:00:05.181Z,39.6
2018-09-08T12:01:06.757Z,39.6
2018-09-08T12:02:08.693Z,40.1
2018-09-08T12:03:10.824Z,39.6
2018-09-08T12:04:12.891Z,40.1
2018-09-08T12:05:14.484Z,40.1
2018-09-08T12:06:16.123Z,39.1
2018-09-08T12:07:17.770Z,39.1
2018-09-08T12:08:19.340Z,39.6
2018-09-08T12:09:20.948Z,40.1
2018-09-08T12:10:22.359Z,39.1
2018-09-08T12:11:23.957Z,39.1
2018-09-08T12:12:25.528Z,39.1
2018-09-08T12:13:27.146Z,39.6
2018-09-08T12:14:28.743Z,39.6
2018-09-08T12:15:30.578Z,40.1
2018-09-08T12:16:32.287Z,40.1
2018-09-08T12:17:33.894Z,40.1
2018-09-08T12:18:35.489Z,39.6
2018-09-08T12:19:36.921Z,39.1
2018-09-08T12:20:38.524Z,39.6
2018-09-08T12:21:40.105Z,39.6
2018-09-08T12:22:41.711Z,39.1
2018-09-08T12:23:43.294Z,39.6
2018-09-08T12:24:44.890Z,39.1
2018-09-08T12:25:46.483Z,39.6
2018-09-08T12:26:48.108Z,39.1
2018-09-08T12:27:49.780Z,39.1
2018-09-08T12:28:51.436Z,39.1
2018-09-08T12:29:52.539Z,39.1
2018-09-08T12:30:54.584Z,39.1
2018-09-08T12:31:56.493Z,39.1
2018-09-08T12:32:58.570Z,39.1
2018-09-08T12:34:00.174Z,39.6
2018-09-08T12:35:01.789Z,39.1
2018-09-08T12:36:03.219Z,38.6
2018-09-08T12:37:04.950Z,39.1
2018-09-08T12:38:06.467Z,39.1
2018-09-08T12:39:08.068Z,39.6
2018-09-08T12:40:09.683Z,38.6
2018-09-08T12:41:11.290Z,38.1
2018-09-08T12:42:12.894Z,39.6
2018-09-08T12:43:14.482Z,40.1
2018-09-08T12:44:16.084Z,39.1
2018-09-08T12:45:17.707Z,38.6
2018-09-08T12:46:19.288Z,39.1
2018-09-08T12:47:20.887Z,39.1
2018-09-08T12:48:22.479Z,40.1
2018-09-08T12:49:23.928Z,39.1
2018-09-08T12:50:25.540Z,40.6
2018-09-08T12:51:27.123Z,40.1
2018-09-08T12:52:28.742Z,40.1
2018-09-08T12:53:30.779Z,40.6
2018-09-08T12:54:32.585Z,40.1
2018-09-08T12:55:34.169Z,40.1
2018-09-08T12:56:35.773Z,40.1
2018-09-08T12:57:37.381Z,41.1
2018-09-08T12:58:39.038Z,40.6
2018-09-08T12:59:40.628Z,40.1
2018-09-08T13:00:42.236Z,40.6
2018-09-08T13:01:43.828Z,41.1
2018-09-08T13:02:45.401Z,41.5
2018-09-08T13:03:46.989Z,41.1
2018-09-08T13:04:48.418Z,40.6
2018-09-08T13:05:50.010Z,41.1
2018-09-08T13:06:51.606Z,40.6
2018-09-08T13:07:53.220Z,41.1
2018-09-08T13:08:54.901Z,41.1
2018-09-08T13:09:56.669Z,41.1
2018-09-08T13:10:58.157Z,40.1
2018-09-08T13:11:59.814Z,41.1
2018-09-08T13:13:01.403Z,41.1
2018-09-08T13:14:03.040Z,41.1
2018-09-08T13:15:04.739Z,40.6
2018-09-08T13:16:06.356Z,40.6
2018-09-08T13:17:07.938Z,41.1
2018-09-08T13:18:09.520Z,40.6
2018-09-08T13:19:10.964Z,40.6
2018-09-08T13:20:12.531Z,40.6
2018-09-08T13:21:14.110Z,40.1
2018-09-08T13:22:15.687Z,41.1
2018-09-08T13:23:17.088Z,40.6
2018-09-08T13:24:18.675Z,40.6
2018-09-08T13:25:20.280Z,40.6
2018-09-08T13:26:21.733Z,40.6
2018-09-08T13:27:23.310Z,40.6
2018-09-08T13:28:24.737Z,40.1
2018-09-08T13:29:26.378Z,41.1
2018-09-08T13:30:28.001Z,40.1
2018-09-08T13:31:29.583Z,40.6
2018-09-08T13:32:31.161Z,39.6
2018-09-08T13:33:32.747Z,40.1
2018-09-08T13:34:34.357Z,40.1
2018-09-08T13:35:35.938Z,40.1
2018-09-08T13:36:37.551Z,39.6
2018-09-08T13:37:39.105Z,40.6
2018-09-08T13:38:41.215Z,40.1
2018-09-08T13:39:43.445Z,39.6